sensor_id;sensor_type;location;lat;lon;timestamp;P1;durP1;ratioP1;P2;durP2;ratioP2
64633;SDS011;51043;52.406;9.690;2023-02-15T00:00:01;40.93;;;27.50;;
64633;SDS011;51043;52.406;9.690;2023-02-15T00:02:30;36.20;;;24.93;;
64633;SDS011;51043;52.406;9.690;2023-02-15T00:04:57;39.37;;;26.37;;
64633;SDS011;51043;52.406;9.690;2023-02-15T00:07:24;38.40;;;26.10;;
64633;SDS011;51043;52.406;9.690;2023-02-15T00:09:50;45.67;;;26.20;;
64633;SDS011;51043;52.406;9.690;2023-02-15T00:12:17;48.10;;;28.23;;
64633;SDS011;51043;52.406;9.690;2023-02-15T00:14:44;40.93;;;25.53;;
64633;SDS011;51043;52.406;9.690;2023-02-15T00:17:11;44.73;;;26.97;;
64633;SDS011;51043;52.406;9.690;2023-02-15T00:19:37;39.07;;;27.20;;
64633;SDS011;51043;52.406;9.690;2023-02-15T00:22:06;43.87;;;26.20;;
64633;SDS011;51043;52.406;9.690;2023-02-15T00:24:33;41.07;;;24.77;;
64633;SDS011;51043;52.406;9.690;2023-02-15T00:27:00;41.47;;;27.47;;
64633;SDS011;51043;52.406;9.690;2023-02-15T00:29:26;45.83;;;28.60;;
64633;SDS011;51043;52.406;9.690;2023-02-15T00:31:54;48.93;;;29.33;;
64633;SDS011;51043;52.406;9.690;2023-02-15T00:34:23;51.30;;;30.20;;
64633;SDS011;51043;52.406;9.690;2023-02-15T00:36:51;44.90;;;27.63;;
64633;SDS011;51043;52.406;9.690;2023-02-15T00:39:19;46.30;;;27.27;;
64633;SDS011;51043;52.406;9.690;2023-02-15T00:41:46;42.20;;;27.07;;
64633;SDS011;51043;52.406;9.690;2023-02-15T00:44:14;44.10;;;28.03;;
64633;SDS011;51043;52.406;9.690;2023-02-15T00:46:41;47.37;;;28.40;;
64633;SDS011;51043;52.406;9.690;2023-02-15T00:49:08;46.77;;;26.90;;
64633;SDS011;51043;52.406;9.690;2023-02-15T00:51:36;42.13;;;27.20;;
64633;SDS011;51043;52.406;9.690;2023-02-15T00:54:04;39.60;;;26.83;;
64633;SDS011;51043;52.406;9.690;2023-02-15T00:56:31;44.93;;;27.27;;
64633;SDS011;51043;52.406;9.690;2023-02-15T00:58:57;44.63;;;27.60;;
64633;SDS011;51043;52.406;9.690;2023-02-15T01:01:24;37.97;;;25.93;;
64633;SDS011;51043;52.406;9.690;2023-02-15T01:03:52;39.03;;;24.67;;
64633;SDS011;51043;52.406;9.690;2023-02-15T01:06:19;34.53;;;23.70;;
64633;SDS011;51043;52.406;9.690;2023-02-15T01:08:46;36.90;;;24.23;;
64633;SDS011;51043;52.406;9.690;2023-02-15T01:11:15;34.80;;;22.73;;
64633;SDS011;51043;52.406;9.690;2023-02-15T01:13:50;34.27;;;22.33;;
64633;SDS011;51043;52.406;9.690;2023-02-15T01:16:18;41.60;;;22.03;;
64633;SDS011;51043;52.406;9.690;2023-02-15T01:18:45;37.50;;;22.53;;
64633;SDS011;51043;52.406;9.690;2023-02-15T01:21:15;32.87;;;22.37;;
64633;SDS011;51043;52.406;9.690;2023-02-15T01:23:44;33.37;;;21.80;;
64633;SDS011;51043;52.406;9.690;2023-02-15T01:26:14;30.33;;;20.90;;
64633;SDS011;51043;52.406;9.690;2023-02-15T01:28:42;31.50;;;21.83;;
64633;SDS011;51043;52.406;9.690;2023-02-15T01:31:12;33.17;;;21.60;;
64633;SDS011;51043;52.406;9.690;2023-02-15T01:33:44;32.43;;;20.80;;
64633;SDS011;51043;52.406;9.690;2023-02-15T01:36:12;33.70;;;21.00;;
64633;SDS011;51043;52.406;9.690;2023-02-15T01:38:40;37.40;;;21.53;;
64633;SDS011;51043;52.406;9.690;2023-02-15T01:41:07;31.00;;;20.63;;
64633;SDS011;51043;52.406;9.690;2023-02-15T01:43:47;33.70;;;21.13;;
64633;SDS011;51043;52.406;9.690;2023-02-15T01:46:18;31.03;;;20.67;;
64633;SDS011;51043;52.406;9.690;2023-02-15T01:48:48;38.03;;;21.47;;
64633;SDS011;51043;52.406;9.690;2023-02-15T01:51:20;35.67;;;21.27;;
64633;SDS011;51043;52.406;9.690;2023-02-15T01:53:51;28.60;;;19.47;;
64633;SDS011;51043;52.406;9.690;2023-02-15T01:56:25;34.73;;;21.03;;
64633;SDS011;51043;52.406;9.690;2023-02-15T01:58:56;33.03;;;19.33;;
64633;SDS011;51043;52.406;9.690;2023-02-15T02:01:26;30.60;;;20.43;;
64633;SDS011;51043;52.406;9.690;2023-02-15T02:03:59;28.20;;;19.40;;
64633;SDS011;51043;52.406;9.690;2023-02-15T02:06:29;30.53;;;19.90;;
64633;SDS011;51043;52.406;9.690;2023-02-15T02:08:56;36.23;;;19.93;;
64633;SDS011;51043;52.406;9.690;2023-02-15T02:11:25;29.70;;;19.77;;
64633;SDS011;51043;52.406;9.690;2023-02-15T02:13:52;31.30;;;20.80;;
64633;SDS011;51043;52.406;9.690;2023-02-15T02:27:49;35.93;;;21.27;;
64633;SDS011;51043;52.406;9.690;2023-02-15T02:40:07;30.67;;;21.10;;
64633;SDS011;51043;52.406;9.690;2023-02-15T02:42:41;36.00;;;20.60;;
64633;SDS011;51043;52.406;9.690;2023-02-15T02:45:20;29.80;;;20.00;;
64633;SDS011;51043;52.406;9.690;2023-02-15T02:48:15;34.50;;;21.13;;
64633;SDS011;51043;52.406;9.690;2023-02-15T02:50:48;33.07;;;20.50;;
64633;SDS011;51043;52.406;9.690;2023-02-15T02:53:15;33.87;;;20.77;;
64633;SDS011;51043;52.406;9.690;2023-02-15T02:55:44;32.70;;;19.93;;
64633;SDS011;51043;52.406;9.690;2023-02-15T03:00:55;32.37;;;20.77;;
64633;SDS011;51043;52.406;9.690;2023-02-15T03:03:30;30.17;;;19.37;;
64633;SDS011;51043;52.406;9.690;2023-02-15T03:06:23;28.73;;;19.97;;
64633;SDS011;51043;52.406;9.690;2023-02-15T03:09:04;31.67;;;20.50;;
64633;SDS011;51043;52.406;9.690;2023-02-15T03:11:41;27.73;;;19.00;;
64633;SDS011;51043;52.406;9.690;2023-02-15T03:14:10;29.97;;;19.90;;
64633;SDS011;51043;52.406;9.690;2023-02-15T03:16:40;31.90;;;19.63;;
64633;SDS011;51043;52.406;9.690;2023-02-15T03:19:16;32.50;;;19.83;;
64633;SDS011;51043;52.406;9.690;2023-02-15T03:21:49;31.57;;;18.77;;
64633;SDS011;51043;52.406;9.690;2023-02-15T03:24:24;31.03;;;19.80;;
64633;SDS011;51043;52.406;9.690;2023-02-15T03:26:56;30.77;;;19.67;;
64633;SDS011;51043;52.406;9.690;2023-02-15T03:29:26;28.70;;;19.03;;
64633;SDS011;51043;52.406;9.690;2023-02-15T03:31:56;28.47;;;18.87;;
64633;SDS011;51043;52.406;9.690;2023-02-15T03:34:28;29.13;;;19.00;;
64633;SDS011;51043;52.406;9.690;2023-02-15T03:36:57;26.50;;;18.60;;
64633;SDS011;51043;52.406;9.690;2023-02-15T03:43:00;28.43;;;19.00;;
64633;SDS011;51043;52.406;9.690;2023-02-15T03:45:51;29.90;;;19.03;;
64633;SDS011;51043;52.406;9.690;2023-02-15T03:48:25;30.40;;;19.17;;
64633;SDS011;51043;52.406;9.690;2023-02-15T03:50:57;31.23;;;18.53;;
64633;SDS011;51043;52.406;9.690;2023-02-15T03:53:47;29.40;;;19.40;;
64633;SDS011;51043;52.406;9.690;2023-02-15T03:56:15;29.00;;;18.97;;
64633;SDS011;51043;52.406;9.690;2023-02-15T03:58:42;29.93;;;19.23;;
64633;SDS011;51043;52.406;9.690;2023-02-15T04:01:36;30.33;;;19.37;;
64633;SDS011;51043;52.406;9.690;2023-02-15T04:04:29;30.73;;;19.83;;
64633;SDS011;51043;52.406;9.690;2023-02-15T04:07:01;28.90;;;19.33;;
64633;SDS011;51043;52.406;9.690;2023-02-15T04:09:29;34.53;;;21.23;;
64633;SDS011;51043;52.406;9.690;2023-02-15T04:12:15;29.00;;;19.47;;
64633;SDS011;51043;52.406;9.690;2023-02-15T04:14:42;34.20;;;19.40;;
64633;SDS011;51043;52.406;9.690;2023-02-15T04:17:27;32.23;;;19.40;;
64633;SDS011;51043;52.406;9.690;2023-02-15T04:19:54;33.03;;;19.97;;
64633;SDS011;51043;52.406;9.690;2023-02-15T04:22:40;32.37;;;20.00;;
64633;SDS011;51043;52.406;9.690;2023-02-15T04:25:25;29.40;;;19.03;;
64633;SDS011;51043;52.406;9.690;2023-02-15T04:27:53;28.20;;;18.97;;
64633;SDS011;51043;52.406;9.690;2023-02-15T04:30:22;29.93;;;19.13;;
64633;SDS011;51043;52.406;9.690;2023-02-15T04:32:50;29.40;;;18.70;;
64633;SDS011;51043;52.406;9.690;2023-02-15T04:35:18;29.50;;;19.67;;
64633;SDS011;51043;52.406;9.690;2023-02-15T04:37:45;32.10;;;20.13;;
64633;SDS011;51043;52.406;9.690;2023-02-15T04:40:15;31.93;;;19.47;;
64633;SDS011;51043;52.406;9.690;2023-02-15T04:42:46;30.47;;;19.77;;
64633;SDS011;51043;52.406;9.690;2023-02-15T04:45:14;28.47;;;18.90;;
64633;SDS011;51043;52.406;9.690;2023-02-15T04:47:41;29.73;;;19.50;;
64633;SDS011;51043;52.406;9.690;2023-02-15T04:50:08;34.47;;;19.40;;
64633;SDS011;51043;52.406;9.690;2023-02-15T04:52:35;31.83;;;19.27;;
64633;SDS011;51043;52.406;9.690;2023-02-15T04:55:02;28.87;;;19.30;;
64633;SDS011;51043;52.406;9.690;2023-02-15T04:57:29;30.40;;;19.37;;
64633;SDS011;51043;52.406;9.690;2023-02-15T04:59:56;30.37;;;18.47;;
64633;SDS011;51043;52.406;9.690;2023-02-15T05:02:25;29.97;;;19.13;;
64633;SDS011;51043;52.406;9.690;2023-02-15T05:04:52;27.63;;;19.00;;
64633;SDS011;51043;52.406;9.690;2023-02-15T05:07:19;30.23;;;19.70;;
64633;SDS011;51043;52.406;9.690;2023-02-15T05:09:47;28.43;;;19.27;;
64633;SDS011;51043;52.406;9.690;2023-02-15T05:12:14;33.43;;;20.20;;
64633;SDS011;51043;52.406;9.690;2023-02-15T05:14:40;33.70;;;20.43;;
64633;SDS011;51043;52.406;9.690;2023-02-15T05:17:07;33.23;;;20.27;;
64633;SDS011;51043;52.406;9.690;2023-02-15T05:19:34;36.87;;;21.50;;
64633;SDS011;51043;52.406;9.690;2023-02-15T05:22:01;34.10;;;19.87;;
64633;SDS011;51043;52.406;9.690;2023-02-15T05:24:27;28.40;;;19.50;;
64633;SDS011;51043;52.406;9.690;2023-02-15T05:27:13;31.20;;;20.57;;
64633;SDS011;51043;52.406;9.690;2023-02-15T05:29:58;35.20;;;20.63;;
64633;SDS011;51043;52.406;9.690;2023-02-15T05:32:25;33.83;;;20.77;;
64633;SDS011;51043;52.406;9.690;2023-02-15T05:34:52;32.37;;;21.03;;
64633;SDS011;51043;52.406;9.690;2023-02-15T05:37:19;36.13;;;23.13;;
64633;SDS011;51043;52.406;9.690;2023-02-15T05:39:46;34.50;;;21.67;;
64633;SDS011;51043;52.406;9.690;2023-02-15T05:42:12;36.30;;;22.17;;
64633;SDS011;51043;52.406;9.690;2023-02-15T05:44:39;32.93;;;21.37;;
64633;SDS011;51043;52.406;9.690;2023-02-15T05:47:06;32.57;;;21.57;;
64633;SDS011;51043;52.406;9.690;2023-02-15T05:49:33;35.03;;;21.07;;
64633;SDS011;51043;52.406;9.690;2023-02-15T05:52:00;32.40;;;21.27;;
64633;SDS011;51043;52.406;9.690;2023-02-15T05:54:27;34.10;;;21.27;;
64633;SDS011;51043;52.406;9.690;2023-02-15T05:56:54;34.40;;;22.23;;
64633;SDS011;51043;52.406;9.690;2023-02-15T05:59:21;34.03;;;21.80;;
64633;SDS011;51043;52.406;9.690;2023-02-15T06:01:48;33.00;;;20.73;;
64633;SDS011;51043;52.406;9.690;2023-02-15T06:04:17;32.23;;;21.73;;
64633;SDS011;51043;52.406;9.690;2023-02-15T06:06:44;33.47;;;21.77;;
64633;SDS011;51043;52.406;9.690;2023-02-15T06:09:11;38.57;;;22.40;;
64633;SDS011;51043;52.406;9.690;2023-02-15T06:11:38;33.40;;;21.40;;
64633;SDS011;51043;52.406;9.690;2023-02-15T06:14:05;38.90;;;24.13;;
64633;SDS011;51043;52.406;9.690;2023-02-15T06:16:32;34.33;;;22.87;;
64633;SDS011;51043;52.406;9.690;2023-02-15T06:18:59;39.97;;;25.27;;
64633;SDS011;51043;52.406;9.690;2023-02-15T06:21:27;41.60;;;25.57;;
64633;SDS011;51043;52.406;9.690;2023-02-15T06:23:55;38.67;;;24.17;;
64633;SDS011;51043;52.406;9.690;2023-02-15T06:26:22;38.83;;;23.13;;
64633;SDS011;51043;52.406;9.690;2023-02-15T06:28:48;37.33;;;22.40;;
64633;SDS011;51043;52.406;9.690;2023-02-15T06:31:15;36.00;;;21.53;;
64633;SDS011;51043;52.406;9.690;2023-02-15T06:33:42;33.83;;;20.50;;
64633;SDS011;51043;52.406;9.690;2023-02-15T06:36:09;42.83;;;26.47;;
64633;SDS011;51043;52.406;9.690;2023-02-15T06:38:36;43.93;;;27.27;;
64633;SDS011;51043;52.406;9.690;2023-02-15T06:41:03;47.53;;;27.10;;
64633;SDS011;51043;52.406;9.690;2023-02-15T06:43:30;48.07;;;26.90;;
64633;SDS011;51043;52.406;9.690;2023-02-15T06:45:57;44.23;;;26.57;;
64633;SDS011;51043;52.406;9.690;2023-02-15T06:48:24;55.10;;;27.73;;
64633;SDS011;51043;52.406;9.690;2023-02-15T06:50:51;43.10;;;26.33;;
64633;SDS011;51043;52.406;9.690;2023-02-15T06:53:18;40.73;;;25.30;;
64633;SDS011;51043;52.406;9.690;2023-02-15T06:55:45;42.83;;;25.47;;
64633;SDS011;51043;52.406;9.690;2023-02-15T06:58:12;39.33;;;25.27;;
64633;SDS011;51043;52.406;9.690;2023-02-15T07:00:39;43.20;;;26.53;;
64633;SDS011;51043;52.406;9.690;2023-02-15T07:03:06;42.93;;;26.53;;
64633;SDS011;51043;52.406;9.690;2023-02-15T07:05:33;41.70;;;25.77;;
64633;SDS011;51043;52.406;9.690;2023-02-15T07:08:00;43.13;;;25.00;;
64633;SDS011;51043;52.406;9.690;2023-02-15T07:10:28;46.47;;;26.73;;
64633;SDS011;51043;52.406;9.690;2023-02-15T07:12:55;45.17;;;25.53;;
64633;SDS011;51043;52.406;9.690;2023-02-15T07:15:22;42.33;;;24.90;;
64633;SDS011;51043;52.406;9.690;2023-02-15T07:17:49;41.23;;;25.90;;
64633;SDS011;51043;52.406;9.690;2023-02-15T07:20:17;42.33;;;26.20;;
64633;SDS011;51043;52.406;9.690;2023-02-15T07:22:46;46.60;;;25.40;;
64633;SDS011;51043;52.406;9.690;2023-02-15T07:25:13;43.03;;;26.20;;
64633;SDS011;51043;52.406;9.690;2023-02-15T07:27:40;41.03;;;25.90;;
64633;SDS011;51043;52.406;9.690;2023-02-15T07:30:11;43.87;;;26.10;;
64633;SDS011;51043;52.406;9.690;2023-02-15T07:32:40;44.43;;;28.00;;
64633;SDS011;51043;52.406;9.690;2023-02-15T07:35:29;42.27;;;26.43;;
64633;SDS011;51043;52.406;9.690;2023-02-15T07:37:56;38.83;;;24.40;;
64633;SDS011;51043;52.406;9.690;2023-02-15T07:40:23;44.30;;;25.87;;
64633;SDS011;51043;52.406;9.690;2023-02-15T07:42:50;44.80;;;27.10;;
64633;SDS011;51043;52.406;9.690;2023-02-15T07:45:20;49.07;;;29.03;;
64633;SDS011;51043;52.406;9.690;2023-02-15T07:47:47;47.07;;;28.63;;
64633;SDS011;51043;52.406;9.690;2023-02-15T07:50:14;38.60;;;26.57;;
64633;SDS011;51043;52.406;9.690;2023-02-15T07:52:41;28.30;;;21.30;;
64633;SDS011;51043;52.406;9.690;2023-02-15T07:55:08;24.20;;;18.23;;
64633;SDS011;51043;52.406;9.690;2023-02-15T07:57:35;20.40;;;16.60;;
64633;SDS011;51043;52.406;9.690;2023-02-15T08:00:02;17.90;;;14.63;;
64633;SDS011;51043;52.406;9.690;2023-02-15T08:02:37;16.80;;;13.40;;
64633;SDS011;51043;52.406;9.690;2023-02-15T08:05:05;16.30;;;13.70;;
64633;SDS011;51043;52.406;9.690;2023-02-15T08:07:32;16.07;;;12.60;;
64633;SDS011;51043;52.406;9.690;2023-02-15T08:09:59;14.97;;;12.87;;
64633;SDS011;51043;52.406;9.690;2023-02-15T08:12:26;13.97;;;12.47;;
64633;SDS011;51043;52.406;9.690;2023-02-15T08:14:53;14.77;;;11.93;;
64633;SDS011;51043;52.406;9.690;2023-02-15T08:17:20;13.33;;;11.80;;
64633;SDS011;51043;52.406;9.690;2023-02-15T08:19:47;13.27;;;11.87;;
64633;SDS011;51043;52.406;9.690;2023-02-15T08:22:14;13.27;;;11.87;;
64633;SDS011;51043;52.406;9.690;2023-02-15T08:24:41;13.93;;;12.27;;
64633;SDS011;51043;52.406;9.690;2023-02-15T08:27:09;14.33;;;12.03;;
64633;SDS011;51043;52.406;9.690;2023-02-15T08:29:37;13.77;;;12.33;;
64633;SDS011;51043;52.406;9.690;2023-02-15T08:32:06;14.00;;;12.50;;
64633;SDS011;51043;52.406;9.690;2023-02-15T08:34:36;13.60;;;12.20;;
64633;SDS011;51043;52.406;9.690;2023-02-15T08:37:05;14.77;;;12.30;;
64633;SDS011;51043;52.406;9.690;2023-02-15T08:39:33;14.27;;;12.33;;
64633;SDS011;51043;52.406;9.690;2023-02-15T08:42:00;12.50;;;11.13;;
64633;SDS011;51043;52.406;9.690;2023-02-15T08:44:27;16.30;;;11.97;;
64633;SDS011;51043;52.406;9.690;2023-02-15T08:46:54;14.53;;;12.10;;
64633;SDS011;51043;52.406;9.690;2023-02-15T08:49:21;14.67;;;13.00;;
64633;SDS011;51043;52.406;9.690;2023-02-15T08:51:48;13.50;;;11.90;;
64633;SDS011;51043;52.406;9.690;2023-02-15T08:54:17;15.33;;;12.47;;
64633;SDS011;51043;52.406;9.690;2023-02-15T08:56:47;14.87;;;11.87;;
64633;SDS011;51043;52.406;9.690;2023-02-15T08:59:15;14.47;;;12.20;;
64633;SDS011;51043;52.406;9.690;2023-02-15T09:01:44;16.20;;;12.67;;
64633;SDS011;51043;52.406;9.690;2023-02-15T09:04:14;13.67;;;11.97;;
64633;SDS011;51043;52.406;9.690;2023-02-15T09:06:42;17.23;;;12.17;;
64633;SDS011;51043;52.406;9.690;2023-02-15T09:09:12;14.23;;;11.83;;
64633;SDS011;51043;52.406;9.690;2023-02-15T09:11:40;14.53;;;11.53;;
64633;SDS011;51043;52.406;9.690;2023-02-15T09:14:12;13.73;;;12.13;;
64633;SDS011;51043;52.406;9.690;2023-02-15T09:16:42;14.83;;;12.20;;
64633;SDS011;51043;52.406;9.690;2023-02-15T09:19:15;16.27;;;12.87;;
64633;SDS011;51043;52.406;9.690;2023-02-15T09:21:44;14.87;;;12.67;;
64633;SDS011;51043;52.406;9.690;2023-02-15T09:24:12;14.37;;;12.20;;
64633;SDS011;51043;52.406;9.690;2023-02-15T09:26:41;14.90;;;12.60;;
64633;SDS011;51043;52.406;9.690;2023-02-15T09:29:10;16.17;;;12.50;;
64633;SDS011;51043;52.406;9.690;2023-02-15T09:31:39;15.53;;;13.00;;
64633;SDS011;51043;52.406;9.690;2023-02-15T09:34:11;18.43;;;13.50;;
64633;SDS011;51043;52.406;9.690;2023-02-15T09:36:39;20.40;;;13.90;;
64633;SDS011;51043;52.406;9.690;2023-02-15T09:39:17;15.30;;;12.97;;
64633;SDS011;51043;52.406;9.690;2023-02-15T09:41:50;18.57;;;12.93;;
64633;SDS011;51043;52.406;9.690;2023-02-15T09:44:40;16.07;;;13.50;;
64633;SDS011;51043;52.406;9.690;2023-02-15T09:50:26;15.80;;;12.47;;
64633;SDS011;51043;52.406;9.690;2023-02-15T09:53:23;24.73;;;13.30;;
64633;SDS011;51043;52.406;9.690;2023-02-15T09:56:27;17.23;;;13.30;;
64633;SDS011;51043;52.406;9.690;2023-02-15T09:59:11;21.40;;;13.33;;
64633;SDS011;51043;52.406;9.690;2023-02-15T10:02:12;16.70;;;12.90;;
64633;SDS011;51043;52.406;9.690;2023-02-15T10:05:18;17.53;;;13.30;;
64633;SDS011;51043;52.406;9.690;2023-02-15T10:08:01;15.77;;;12.47;;
64633;SDS011;51043;52.406;9.690;2023-02-15T10:10:57;16.30;;;12.50;;
64633;SDS011;51043;52.406;9.690;2023-02-15T10:14:13;14.03;;;11.57;;
64633;SDS011;51043;52.406;9.690;2023-02-15T10:19:40;15.07;;;11.90;;
64633;SDS011;51043;52.406;9.690;2023-02-15T10:22:27;16.07;;;11.10;;
64633;SDS011;51043;52.406;9.690;2023-02-15T10:28:18;15.17;;;11.50;;
64633;SDS011;51043;52.406;9.690;2023-02-15T10:30:58;18.70;;;11.70;;
64633;SDS011;51043;52.406;9.690;2023-02-15T10:33:45;12.70;;;10.83;;
64633;SDS011;51043;52.406;9.690;2023-02-15T10:39:22;14.03;;;11.27;;
64633;SDS011;51043;52.406;9.690;2023-02-15T10:47:39;13.20;;;11.80;;
64633;SDS011;51043;52.406;9.690;2023-02-15T10:50:30;12.13;;;10.40;;
64633;SDS011;51043;52.406;9.690;2023-02-15T10:53:34;14.27;;;10.00;;
64633;SDS011;51043;52.406;9.690;2023-02-15T10:56:24;12.37;;;9.80;;
64633;SDS011;51043;52.406;9.690;2023-02-15T11:10:10;13.85;;;10.02;;
64633;SDS011;51043;52.406;9.690;2023-02-15T11:12:56;13.10;;;10.23;;
64633;SDS011;51043;52.406;9.690;2023-02-15T11:15:36;13.68;;;9.32;;
64633;SDS011;51043;52.406;9.690;2023-02-15T11:20:52;10.82;;;8.85;;
64633;SDS011;51043;52.406;9.690;2023-02-15T11:23:28;14.93;;;9.25;;
64633;SDS011;51043;52.406;9.690;2023-02-15T11:25:58;16.35;;;9.63;;
64633;SDS011;51043;52.406;9.690;2023-02-15T11:28:33;10.27;;;8.75;;
64633;SDS011;51043;52.406;9.690;2023-02-15T11:31:13;11.70;;;9.13;;
64633;SDS011;51043;52.406;9.690;2023-02-15T11:33:44;14.50;;;9.40;;
64633;SDS011;51043;52.406;9.690;2023-02-15T11:36:17;13.40;;;9.43;;
64633;SDS011;51043;52.406;9.690;2023-02-15T11:38:49;16.08;;;9.45;;
64633;SDS011;51043;52.406;9.690;2023-02-15T11:41:21;13.27;;;9.10;;
64633;SDS011;51043;52.406;9.690;2023-02-15T11:43:58;12.55;;;9.30;;
64633;SDS011;51043;52.406;9.690;2023-02-15T11:46:31;12.73;;;9.48;;
64633;SDS011;51043;52.406;9.690;2023-02-15T11:48:58;14.20;;;10.07;;
64633;SDS011;51043;52.406;9.690;2023-02-15T11:51:25;14.10;;;9.05;;
64633;SDS011;51043;52.406;9.690;2023-02-15T11:53:54;15.15;;;10.32;;
64633;SDS011;51043;52.406;9.690;2023-02-15T11:56:23;13.57;;;9.50;;
64633;SDS011;51043;52.406;9.690;2023-02-15T11:58:55;12.05;;;9.57;;
64633;SDS011;51043;52.406;9.690;2023-02-15T12:01:30;11.45;;;9.43;;
64633;SDS011;51043;52.406;9.690;2023-02-15T12:04:04;15.82;;;9.43;;
64633;SDS011;51043;52.406;9.690;2023-02-15T12:06:41;11.60;;;9.25;;
64633;SDS011;51043;52.406;9.690;2023-02-15T12:09:34;14.50;;;9.30;;
64633;SDS011;51043;52.406;9.690;2023-02-15T12:12:26;12.77;;;9.40;;
64633;SDS011;51043;52.406;9.690;2023-02-15T12:14:58;15.40;;;9.15;;
64633;SDS011;51043;52.406;9.690;2023-02-15T12:17:32;17.40;;;10.45;;
64633;SDS011;51043;52.406;9.690;2023-02-15T12:22:49;12.10;;;9.98;;
64633;SDS011;51043;52.406;9.690;2023-02-15T12:28:18;20.05;;;9.75;;
64633;SDS011;51043;52.406;9.690;2023-02-15T12:30:52;17.25;;;9.57;;
64633;SDS011;51043;52.406;9.690;2023-02-15T12:33:41;12.65;;;9.73;;
64633;SDS011;51043;52.406;9.690;2023-02-15T12:36:21;14.00;;;10.20;;
64633;SDS011;51043;52.406;9.690;2023-02-15T12:44:25;14.02;;;9.38;;
64633;SDS011;51043;52.406;9.690;2023-02-15T12:49:45;13.13;;;9.95;;
64633;SDS011;51043;52.406;9.690;2023-02-15T12:52:37;11.63;;;10.10;;
64633;SDS011;51043;52.406;9.690;2023-02-15T12:55:26;15.13;;;10.23;;
64633;SDS011;51043;52.406;9.690;2023-02-15T12:58:15;14.18;;;10.55;;
64633;SDS011;51043;52.406;9.690;2023-02-15T13:00:44;12.20;;;10.70;;
64633;SDS011;51043;52.406;9.690;2023-02-15T13:03:18;12.33;;;9.80;;
64633;SDS011;51043;52.406;9.690;2023-02-15T13:05:48;13.13;;;11.23;;
64633;SDS011;51043;52.406;9.690;2023-02-15T13:08:22;13.13;;;10.50;;
64633;SDS011;51043;52.406;9.690;2023-02-15T13:13:32;19.23;;;11.70;;
64633;SDS011;51043;52.406;9.690;2023-02-15T13:16:05;13.70;;;11.70;;
64633;SDS011;51043;52.406;9.690;2023-02-15T13:18:41;15.63;;;10.73;;
64633;SDS011;51043;52.406;9.690;2023-02-15T13:21:32;13.00;;;10.87;;
64633;SDS011;51043;52.406;9.690;2023-02-15T13:24:10;13.07;;;10.93;;
64633;SDS011;51043;52.406;9.690;2023-02-15T13:26:56;13.70;;;11.17;;
64633;SDS011;51043;52.406;9.690;2023-02-15T13:29:39;17.33;;;11.30;;
64633;SDS011;51043;52.406;9.690;2023-02-15T13:32:15;15.93;;;11.90;;
64633;SDS011;51043;52.406;9.690;2023-02-15T13:34:45;16.60;;;12.00;;
64633;SDS011;51043;52.406;9.690;2023-02-15T13:42:38;15.70;;;12.07;;
64633;SDS011;51043;52.406;9.690;2023-02-15T13:45:14;16.17;;;12.60;;
64633;SDS011;51043;52.406;9.690;2023-02-15T13:47:56;15.47;;;11.50;;
64633;SDS011;51043;52.406;9.690;2023-02-15T13:53:37;15.97;;;11.93;;
64633;SDS011;51043;52.406;9.690;2023-02-15T13:56:17;17.87;;;13.07;;
64633;SDS011;51043;52.406;9.690;2023-02-15T14:02:04;18.27;;;13.03;;
64633;SDS011;51043;52.406;9.690;2023-02-15T14:09:53;16.47;;;13.03;;
64633;SDS011;51043;52.406;9.690;2023-02-15T14:12:33;18.60;;;12.97;;
64633;SDS011;51043;52.406;9.690;2023-02-15T14:15:42;20.03;;;13.10;;
64633;SDS011;51043;52.406;9.690;2023-02-15T14:21:10;20.97;;;12.43;;
64633;SDS011;51043;52.406;9.690;2023-02-15T14:26:56;19.07;;;12.20;;
64633;SDS011;51043;52.406;9.690;2023-02-15T14:29:38;15.43;;;12.10;;
64633;SDS011;51043;52.406;9.690;2023-02-15T14:32:10;15.97;;;11.97;;
64633;SDS011;51043;52.406;9.690;2023-02-15T14:34:50;16.17;;;12.47;;
64633;SDS011;51043;52.406;9.690;2023-02-15T14:37:26;15.43;;;11.63;;
64633;SDS011;51043;52.406;9.690;2023-02-15T14:40:23;15.03;;;11.90;;
64633;SDS011;51043;52.406;9.690;2023-02-15T14:43:14;17.17;;;12.23;;
64633;SDS011;51043;52.406;9.690;2023-02-15T14:48:45;14.93;;;11.90;;
64633;SDS011;51043;52.406;9.690;2023-02-15T14:57:33;16.30;;;11.90;;
64633;SDS011;51043;52.406;9.690;2023-02-15T14:59:58;21.17;;;12.00;;
64633;SDS011;51043;52.406;9.690;2023-02-15T15:02:43;14.73;;;11.60;;
64633;SDS011;51043;52.406;9.690;2023-02-15T15:05:19;18.20;;;12.13;;
64633;SDS011;51043;52.406;9.690;2023-02-15T15:07:54;23.47;;;12.33;;
64633;SDS011;51043;52.406;9.690;2023-02-15T15:10:38;22.13;;;12.10;;
64633;SDS011;51043;52.406;9.690;2023-02-15T15:16:23;16.10;;;12.30;;
64633;SDS011;51043;52.406;9.690;2023-02-15T15:18:51;18.67;;;12.17;;
64633;SDS011;51043;52.406;9.690;2023-02-15T15:38:21;17.77;;;12.70;;
64633;SDS011;51043;52.406;9.690;2023-02-15T15:43:51;17.33;;;12.57;;
64633;SDS011;51043;52.406;9.690;2023-02-15T15:49:15;19.53;;;11.97;;
64633;SDS011;51043;52.406;9.690;2023-02-15T15:51:44;17.07;;;12.17;;
64633;SDS011;51043;52.406;9.690;2023-02-15T15:54:14;17.77;;;12.70;;
64633;SDS011;51043;52.406;9.690;2023-02-15T15:56:48;16.43;;;12.00;;
64633;SDS011;51043;52.406;9.690;2023-02-15T15:59:19;16.10;;;12.23;;
64633;SDS011;51043;52.406;9.690;2023-02-15T16:01:49;17.83;;;13.20;;
64633;SDS011;51043;52.406;9.690;2023-02-15T16:04:24;16.87;;;12.97;;
64633;SDS011;51043;52.406;9.690;2023-02-15T16:06:53;16.37;;;12.83;;
64633;SDS011;51043;52.406;9.690;2023-02-15T16:09:21;18.50;;;13.27;;
64633;SDS011;51043;52.406;9.690;2023-02-15T16:11:51;17.47;;;13.30;;
64633;SDS011;51043;52.406;9.690;2023-02-15T16:14:37;17.40;;;13.07;;
64633;SDS011;51043;52.406;9.690;2023-02-15T16:20:06;19.90;;;13.40;;
64633;SDS011;51043;52.406;9.690;2023-02-15T16:22:41;21.53;;;12.70;;
64633;SDS011;51043;52.406;9.690;2023-02-15T16:25:30;16.40;;;12.83;;
64633;SDS011;51043;52.406;9.690;2023-02-15T16:28:21;17.17;;;13.60;;
64633;SDS011;51043;52.406;9.690;2023-02-15T16:30:55;17.33;;;13.20;;
64633;SDS011;51043;52.406;9.690;2023-02-15T16:33:46;20.67;;;14.00;;
64633;SDS011;51043;52.406;9.690;2023-02-15T16:36:23;23.30;;;13.80;;
64633;SDS011;51043;52.406;9.690;2023-02-15T16:41:25;20.20;;;14.57;;
64633;SDS011;51043;52.406;9.690;2023-02-15T16:43:56;19.57;;;14.67;;
64633;SDS011;51043;52.406;9.690;2023-02-15T16:46:40;22.30;;;14.70;;
64633;SDS011;51043;52.406;9.690;2023-02-15T16:49:19;18.83;;;13.73;;
64633;SDS011;51043;52.406;9.690;2023-02-15T16:51:56;20.07;;;13.90;;
64633;SDS011;51043;52.406;9.690;2023-02-15T16:54:24;24.27;;;14.97;;
64633;SDS011;51043;52.406;9.690;2023-02-15T16:56:53;22.13;;;15.10;;
64633;SDS011;51043;52.406;9.690;2023-02-15T16:59:34;20.17;;;14.87;;
64633;SDS011;51043;52.406;9.690;2023-02-15T17:02:06;21.70;;;15.20;;
64633;SDS011;51043;52.406;9.690;2023-02-15T17:07:40;20.83;;;14.33;;
64633;SDS011;51043;52.406;9.690;2023-02-15T17:13:29;22.07;;;13.63;;
64633;SDS011;51043;52.406;9.690;2023-02-15T17:18:27;19.10;;;14.30;;
64633;SDS011;51043;52.406;9.690;2023-02-15T17:21:12;19.93;;;13.90;;
64633;SDS011;51043;52.406;9.690;2023-02-15T17:23:48;19.70;;;14.90;;